Terminal Aerodrome Forecast
Issued by NWS Wichita, KS

Home | Current Version | Previous Version | Graphics & Text | Print | Product List | Glossary On
Versions: 1 2 3 4 5 6 7 8 9 10 11 12 13 14 15 16 17 18 19 20 21 22 23 24 25 26 27
246
FTUS43 KICT 231738 AAE
TAFICT
TAF AMD
KICT 231738Z 2318/2418 17014KT P6SM SCT030 BKN050
      TEMPO 2318/2319 VRB15G22KT 4SM -TSRA SCT020 BKN035CB
     FM240600 17010KT P6SM VCTS BKN025CB
     FM240900 17008KT P6SM VCTS BKN012CB
     FM241600 16009KT P6SM BKN028=

USA.gov is the U.S. government's official web portal to all federal, state and local government web resources and services.